Dallas, Texas
Current Conditions -  °F | °C
As of 3:53 AM on Wednesday 22 Oct 2014 (Local Time) from KDAL Reporting Station
Clear Clear  
Wind Chill: 64°   Ceiling: Unl
Heat Index: 64°   Visibility: 10mi
Dew Point: 59°   Wind: 5mph
Humidity: 84%   Direction: 120°ESE
Pressure: 30.07"   Gusts: NA
Location:  32.78°N, 96.79°W
Report Text: KDAL 220853Z 12004KT 10SM CLR 18/15 A3007 RMK AO2 SLP177 T01780150 52003
Loading
Personal Weather Stations






























Interactive Weather Map
Tropical Storm Tracking
New forecast layout! Learn more

10-Day Weather Forecast

Advertisements
Track Severe Weather on mobile